createdAt,value
2023-02-04T00:00:27.726Z,43.34
2023-02-04T00:01:27.711Z,43.51
2023-02-04T00:02:28.448Z,43.51
2023-02-04T00:03:27.698Z,44.79
2023-02-04T00:04:27.654Z,43.18
2023-02-04T00:05:27.708Z,43.02
2023-02-04T00:06:27.660Z,43.51
2023-02-04T00:07:27.681Z,43.34
2023-02-04T00:08:27.630Z,43.18
2023-02-04T00:09:27.632Z,43.34
2023-02-04T00:10:27.620Z,43.83
2023-02-04T00:11:27.626Z,43.18
2023-02-04T00:12:27.608Z,43.51
2023-02-04T00:13:27.603Z,43.83
2023-02-04T00:14:27.634Z,43.99
2023-02-04T00:16:00.356Z,43.67
2023-02-04T00:16:27.671Z,43.83
2023-02-04T00:17:28.647Z,43.34
2023-02-04T00:18:27.564Z,43.34
2023-02-04T00:19:27.555Z,43.67
2023-02-04T00:20:28.863Z,43.83
2023-02-04T00:21:27.585Z,43.99
2023-02-04T00:22:27.575Z,45.12
2023-02-04T00:23:27.559Z,44.31
2023-02-04T00:24:27.517Z,43.99
2023-02-04T00:25:27.594Z,44.47
2023-02-04T00:26:27.500Z,44.47
2023-02-04T00:27:27.486Z,44.96
2023-02-04T00:28:27.578Z,44.15
2023-02-04T00:29:27.537Z,44.96
2023-02-04T00:30:27.484Z,43.18
2023-02-04T00:31:27.628Z,43.51
2023-02-04T00:32:27.541Z,43.83
2023-02-04T00:33:27.440Z,44.31
2023-02-04T00:34:27.463Z,43.83
2023-02-04T00:35:27.440Z,44.15
2023-02-04T00:36:27.449Z,44.15
2023-02-04T00:37:27.486Z,43.83
2023-02-04T00:38:27.404Z,44.31
2023-02-04T00:39:27.427Z,44.63
2023-02-04T00:40:27.451Z,44.31
2023-02-04T00:41:27.413Z,43.67
2023-02-04T00:42:27.372Z,43.83
2023-02-04T00:43:27.428Z,43.83
2023-02-04T00:44:27.410Z,43.83
2023-02-04T00:45:27.383Z,44.31
2023-02-04T00:46:27.354Z,44.15
2023-02-04T00:47:27.349Z,43.51
2023-02-04T00:48:27.365Z,43.18
2023-02-04T00:49:27.365Z,44.15
2023-02-04T00:50:27.336Z,44.15
2023-02-04T00:51:27.332Z,43.51
2023-02-04T00:52:27.297Z,43.83
2023-02-04T00:53:27.329Z,43.51
2023-02-04T00:54:27.313Z,43.51
2023-02-04T00:55:27.301Z,44.47
2023-02-04T00:56:27.262Z,44.47
2023-02-04T00:57:27.260Z,44.63
2023-02-04T00:58:27.244Z,43.67
2023-02-04T00:59:27.289Z,43.67
2023-02-04T01:00:27.218Z,43.51
2023-02-04T01:01:27.240Z,43.51
2023-02-04T01:02:27.319Z,43.34
2023-02-04T01:03:27.257Z,43.18
2023-02-04T01:04:27.222Z,44.79
2023-02-04T01:05:27.209Z,46.08
2023-02-04T01:06:27.189Z,44.79
2023-02-04T01:07:27.236Z,50.11
2023-02-04T01:08:27.176Z,43.99
2023-02-04T01:09:27.199Z,44.15
2023-02-04T01:10:27.164Z,43.67
2023-02-04T01:11:27.160Z,45.28
2023-02-04T01:12:27.167Z,49.95
2023-02-04T01:13:27.157Z,45.12
2023-02-04T01:14:27.192Z,45.12
2023-02-04T01:15:27.129Z,43.99
2023-02-04T01:16:27.305Z,43.83
2023-02-04T01:17:27.094Z,44.96
2023-02-04T01:18:27.159Z,44.47
2023-02-04T01:19:27.199Z,43.83
2023-02-04T01:20:27.105Z,43.99
2023-02-04T01:21:27.086Z,45.28
2023-02-04T01:22:28.137Z,44.63
2023-02-04T01:23:28.061Z,44.79
2023-02-04T01:24:27.107Z,44.63
2023-02-04T01:25:27.102Z,43.51
2023-02-04T01:26:27.090Z,43.83
2023-02-04T01:27:27.041Z,43.83
2023-02-04T01:28:27.040Z,43.83
2023-02-04T01:29:27.037Z,44.15
2023-02-04T01:30:27.024Z,44.15
2023-02-04T01:31:27.113Z,43.99
2023-02-04T01:32:27.009Z,44.15
2023-02-04T01:33:27.014Z,43.83
2023-02-04T01:34:26.982Z,43.99
2023-02-04T01:35:26.987Z,43.51
2023-02-04T01:36:26.975Z,43.51
2023-02-04T01:37:27.481Z,43.67
2023-02-04T01:38:26.968Z,43.34
2023-02-04T01:39:27.024Z,43.18
2023-02-04T01:40:26.954Z,43.67
2023-02-04T01:41:26.975Z,44.15
2023-02-04T01:42:26.914Z,43.34
2023-02-04T01:43:26.937Z,44.47
2023-02-04T01:44:26.905Z,45.28
2023-02-04T01:45:26.892Z,44.79
2023-02-04T01:46:26.918Z,44.47
2023-02-04T01:47:26.932Z,46.57
2023-02-04T01:48:26.942Z,49.63
2023-02-04T01:49:26.868Z,45.12
2023-02-04T01:50:26.850Z,44.15
2023-02-04T01:51:26.904Z,44.31
2023-02-04T01:52:26.913Z,44.79
2023-02-04T01:53:26.851Z,44.96
2023-02-04T01:54:26.857Z,45.28
2023-02-04T01:55:27.447Z,48.34
2023-02-04T01:56:26.868Z,45.12
2023-02-04T01:57:26.841Z,44.47
2023-02-04T01:58:26.841Z,45.60
2023-02-04T01:59:26.786Z,44.79
2023-02-04T02:00:26.813Z,45.12
2023-02-04T02:01:26.829Z,43.99
2023-02-04T02:02:26.861Z,43.51
2023-02-04T02:03:26.767Z,43.34
2023-02-04T02:04:26.857Z,43.51
2023-02-04T02:05:26.796Z,43.67
2023-02-04T02:06:26.732Z,44.15
2023-02-04T02:07:26.743Z,43.99
2023-02-04T02:08:26.724Z,44.31
2023-02-04T02:09:26.718Z,45.44
2023-02-04T02:10:26.754Z,44.15
2023-02-04T02:11:26.764Z,43.67
2023-02-04T02:12:26.740Z,44.47
2023-02-04T02:13:26.764Z,44.15
2023-02-04T02:14:26.702Z,45.12
2023-02-04T02:15:26.688Z,43.67
2023-02-04T02:16:26.719Z,43.18
2023-02-04T02:17:26.691Z,43.51
2023-02-04T02:18:26.655Z,43.67
2023-02-04T02:19:26.684Z,43.34
2023-02-04T02:20:26.681Z,43.34
2023-02-04T02:21:26.659Z,43.51
2023-02-04T02:22:27.320Z,43.02
2023-02-04T02:23:26.650Z,43.99
2023-02-04T02:24:26.625Z,44.31
2023-02-04T02:25:26.612Z,44.15
2023-02-04T02:26:26.582Z,44.47
2023-02-04T02:27:26.595Z,44.47
2023-02-04T02:28:26.596Z,43.34
2023-02-04T02:29:26.557Z,43.34
2023-02-04T02:30:26.622Z,43.34
2023-02-04T02:31:26.709Z,43.34
2023-02-04T02:32:26.548Z,43.51
2023-02-04T02:33:26.569Z,43.02
2023-02-04T02:34:26.542Z,43.34
2023-02-04T02:35:26.516Z,43.02
2023-02-04T02:36:26.517Z,43.02
2023-02-04T02:37:26.512Z,43.18
2023-02-04T02:38:26.490Z,43.51
2023-02-04T02:39:26.549Z,43.51
2023-02-04T02:40:26.486Z,43.18
2023-02-04T02:41:26.474Z,43.02
2023-02-04T02:42:26.435Z,43.83
2023-02-04T02:43:26.455Z,43.51
2023-02-04T02:44:26.595Z,43.51
2023-02-04T02:45:26.472Z,43.02
2023-02-04T02:46:26.445Z,43.02
2023-02-04T02:47:27.405Z,43.02
2023-02-04T02:48:26.445Z,43.18
2023-02-04T02:49:26.425Z,43.02
2023-02-04T02:50:26.446Z,43.02
2023-02-04T02:51:26.393Z,43.18
2023-02-04T02:52:26.436Z,43.51
2023-02-04T02:53:26.367Z,44.79
2023-02-04T02:54:26.405Z,47.70
2023-02-04T02:55:26.349Z,45.44
2023-02-04T02:56:26.378Z,44.47
2023-02-04T02:57:26.374Z,43.99
2023-02-04T02:58:26.476Z,43.83
2023-02-04T02:59:26.327Z,43.99
2023-02-04T03:00:26.333Z,43.34
2023-02-04T03:01:26.321Z,43.34
2023-02-04T03:02:26.306Z,43.83
2023-02-04T03:03:26.308Z,43.67
2023-02-04T03:04:26.272Z,43.67
2023-02-04T03:05:26.282Z,43.34
2023-02-04T03:06:26.842Z,43.67
2023-02-04T03:07:26.268Z,43.67
2023-02-04T03:08:26.262Z,43.34
2023-02-04T03:09:26.237Z,43.18
2023-02-04T03:10:26.267Z,43.99
2023-02-04T03:11:26.255Z,44.31
2023-02-04T03:12:26.323Z,43.51
2023-02-04T03:13:26.245Z,43.18
2023-02-04T03:14:26.190Z,43.18
2023-02-04T03:15:27.369Z,43.51
2023-02-04T03:16:26.199Z,43.51
2023-02-04T03:17:26.208Z,46.25
2023-02-04T03:18:26.267Z,44.79
2023-02-04T03:19:26.167Z,43.51
2023-02-04T03:20:26.181Z,43.99
2023-02-04T03:21:26.150Z,44.47
2023-02-04T03:22:26.152Z,44.47
2023-02-04T03:23:26.963Z,44.47
2023-02-04T03:24:26.134Z,43.34
2023-02-04T03:25:26.119Z,43.67
2023-02-04T03:26:26.122Z,43.34
2023-02-04T03:27:58.075Z,43.67
2023-02-04T03:28:26.083Z,43.34
2023-02-04T03:29:26.223Z,43.34
2023-02-04T03:30:26.103Z,43.02
2023-02-04T03:31:26.140Z,43.18
2023-02-04T03:32:26.053Z,43.18
2023-02-04T03:33:26.135Z,42.86
2023-02-04T03:34:26.042Z,42.70
2023-02-04T03:35:26.047Z,43.34
2023-02-04T03:36:26.045Z,42.86
2023-02-04T03:37:26.090Z,43.02
2023-02-04T03:38:26.060Z,43.99
2023-02-04T03:39:26.034Z,43.34
2023-02-04T03:40:26.012Z,43.51
2023-02-04T03:41:26.011Z,43.67
2023-02-04T03:42:26.013Z,43.99
2023-02-04T03:43:26.005Z,43.67
2023-02-04T03:44:25.975Z,43.67
2023-02-04T03:45:27.056Z,43.34
2023-02-04T03:46:26.134Z,43.83
2023-02-04T04:03:49.005Z,43.02
2023-02-04T04:04:49.011Z,43.99
2023-02-04T04:05:48.983Z,44.15
2023-02-04T04:06:49.020Z,44.31
2023-02-04T04:07:48.970Z,44.15
2023-02-04T04:08:50.151Z,45.92
2023-02-04T04:09:50.096Z,46.41
2023-02-04T04:10:50.104Z,46.41
2023-02-04T04:11:50.089Z,46.25
2023-02-04T04:12:50.079Z,46.57
2023-02-04T04:13:50.066Z,47.05
2023-02-04T04:14:50.062Z,47.37
2023-02-04T04:15:51.228Z,49.63
2023-02-04T04:16:50.058Z,48.50
2023-02-04T04:17:50.052Z,47.05
2023-02-04T04:18:50.042Z,47.53
2023-02-04T04:19:50.045Z,44.63
2023-02-04T04:20:50.050Z,43.83
2023-02-04T04:21:50.030Z,43.99
2023-02-04T04:22:50.064Z,45.60
2023-02-04T04:23:50.019Z,45.44
2023-02-04T04:24:50.049Z,46.25
2023-02-04T04:25:49.973Z,45.76
2023-02-04T04:26:50.003Z,47.70
2023-02-04T04:27:49.996Z,45.92
2023-02-04T04:28:50.010Z,60.91
2023-02-04T04:29:49.936Z,44.15
2023-02-04T04:30:50.057Z,44.79
2023-02-04T04:31:50.032Z,45.76
2023-02-04T04:32:49.974Z,49.95
2023-02-04T04:33:49.974Z,48.18
2023-02-04T04:34:49.909Z,45.92
2023-02-04T04:35:49.896Z,46.73
2023-02-04T04:36:49.910Z,49.63
2023-02-04T04:37:49.870Z,47.37
2023-02-04T04:38:49.886Z,48.50
2023-02-04T04:39:49.916Z,46.73
2023-02-04T04:40:49.884Z,45.44
2023-02-04T04:41:49.871Z,44.96
2023-02-04T04:42:49.879Z,44.79
2023-02-04T04:43:50.538Z,45.44
2023-02-04T04:44:49.842Z,44.31
2023-02-04T04:45:49.828Z,44.15
2023-02-04T04:46:49.901Z,44.79
2023-02-04T04:47:49.895Z,44.47
2023-02-04T04:48:49.845Z,44.47
2023-02-04T04:49:49.856Z,45.12
2023-02-04T04:50:49.805Z,45.12
2023-02-04T04:51:49.771Z,45.12
2023-02-04T04:52:49.811Z,45.44
2023-02-04T04:53:49.761Z,44.96
2023-02-04T04:54:49.749Z,44.47
2023-02-04T04:55:49.842Z,43.99
2023-02-04T04:56:49.749Z,43.51
2023-02-04T04:57:49.779Z,44.31
2023-02-04T04:58:49.749Z,46.89
2023-02-04T04:59:49.713Z,45.12
2023-02-04T05:00:49.766Z,45.44
2023-02-04T05:01:49.710Z,47.21
2023-02-04T05:02:49.704Z,46.57
2023-02-04T05:03:49.692Z,44.47
2023-02-04T05:04:49.826Z,43.83
2023-02-04T05:05:49.661Z,44.47
2023-02-04T05:06:49.649Z,46.57
2023-02-04T05:07:49.667Z,45.28
2023-02-04T05:08:50.626Z,45.60
2023-02-04T05:09:49.621Z,45.28
2023-02-04T05:10:49.657Z,44.63
2023-02-04T05:11:49.731Z,44.15
2023-02-04T05:12:49.627Z,49.15
2023-02-04T05:13:49.597Z,46.57
2023-02-04T05:14:49.600Z,45.44
2023-02-04T05:15:49.621Z,45.28
2023-02-04T05:16:49.610Z,44.79
2023-02-04T05:17:49.628Z,45.28
2023-02-04T05:18:49.588Z,46.73
2023-02-04T05:19:49.566Z,46.41
2023-02-04T05:20:49.613Z,46.25
2023-02-04T05:21:49.559Z,47.37
2023-02-04T05:22:49.524Z,46.89
2023-02-04T05:23:49.532Z,48.18
2023-02-04T05:24:49.632Z,47.05
2023-02-04T05:25:49.503Z,45.60
2023-02-04T05:26:49.506Z,45.12
2023-02-04T05:27:49.506Z,47.37
2023-02-04T05:28:49.550Z,45.76
2023-02-04T05:29:49.485Z,46.41
2023-02-04T05:30:49.489Z,46.25
2023-02-04T05:31:50.222Z,44.79
2023-02-04T05:32:49.457Z,46.73
2023-02-04T05:33:49.467Z,45.76
2023-02-04T05:34:49.434Z,45.76
2023-02-04T05:35:50.015Z,45.44
2023-02-04T05:36:50.444Z,45.92
2023-02-04T05:37:49.514Z,45.28
2023-02-04T05:38:49.419Z,46.89
2023-02-04T05:39:49.489Z,46.25
2023-02-04T05:40:49.399Z,45.76
2023-02-04T05:41:49.410Z,47.53
2023-02-04T05:42:49.358Z,46.73
2023-02-04T05:43:49.377Z,45.12
2023-02-04T05:44:49.382Z,47.21
2023-02-04T05:45:49.407Z,46.89
2023-02-04T05:46:50.211Z,47.53
2023-02-04T05:47:49.346Z,50.43
2023-02-04T05:48:49.339Z,44.79
2023-02-04T05:49:49.399Z,47.05
2023-02-04T05:50:50.394Z,49.15
2023-02-04T05:51:49.316Z,45.60
2023-02-04T05:52:49.313Z,45.44
2023-02-04T05:53:49.309Z,45.92
2023-02-04T05:54:49.315Z,50.11
2023-02-04T05:55:49.361Z,45.12
2023-02-04T05:56:49.298Z,45.76
2023-02-04T05:57:49.266Z,45.60
2023-02-04T05:58:49.257Z,47.21
2023-02-04T05:59:49.296Z,45.92
2023-02-04T06:00:49.218Z,46.41
2023-02-04T06:01:49.292Z,48.66
2023-02-04T06:02:49.218Z,46.73
2023-02-04T06:03:49.204Z,46.73
2023-02-04T06:04:49.216Z,47.05
2023-02-04T06:05:49.184Z,45.44
2023-02-04T06:06:49.242Z,46.89
2023-02-04T06:07:49.192Z,47.86
2023-02-04T06:08:49.226Z,49.15
2023-02-04T06:09:49.729Z,46.89
2023-02-04T06:10:49.279Z,46.25
2023-02-04T06:11:49.143Z,44.79
2023-02-04T06:12:49.130Z,45.12
2023-02-04T06:13:49.722Z,46.73
2023-02-04T06:14:49.118Z,47.05
2023-02-04T06:16:21.698Z,46.08
2023-02-04T06:16:49.897Z,45.28
2023-02-04T06:17:49.189Z,45.12
2023-02-04T06:18:49.112Z,45.28
2023-02-04T06:19:49.764Z,46.25
2023-02-04T06:20:49.122Z,47.70
2023-02-04T06:21:49.082Z,47.05
2023-02-04T06:22:49.144Z,46.08
2023-02-04T06:23:49.069Z,50.11
2023-02-04T06:24:49.069Z,47.05
2023-02-04T06:25:49.737Z,49.15
2023-02-04T06:26:49.095Z,47.53
2023-02-04T06:27:49.165Z,51.08
2023-02-04T06:28:49.036Z,48.82
2023-02-04T06:29:50.036Z,47.21
2023-02-04T06:30:49.239Z,46.57
2023-02-04T06:31:49.104Z,47.53
2023-02-04T06:32:49.054Z,46.41
2023-02-04T06:33:49.016Z,48.50
2023-02-04T06:34:49.014Z,45.44
2023-02-04T06:35:49.001Z,48.98
2023-02-04T06:36:48.981Z,53.01
2023-02-04T06:37:49.018Z,47.05
2023-02-04T06:38:48.965Z,48.50
2023-02-04T06:39:48.994Z,48.18
2023-02-04T06:40:48.932Z,50.92
2023-02-04T06:41:48.941Z,49.31
2023-02-04T06:42:48.947Z,49.63
2023-02-04T06:43:48.928Z,46.57
2023-02-04T06:44:48.969Z,52.05
2023-02-04T06:45:48.995Z,50.43
2023-02-04T06:46:48.918Z,46.57
2023-02-04T06:47:48.944Z,56.72
2023-02-04T06:48:48.877Z,50.11
2023-02-04T06:49:48.966Z,46.73
2023-02-04T06:50:48.893Z,47.70
2023-02-04T06:51:49.421Z,48.98
2023-02-04T06:52:48.937Z,50.43
2023-02-04T06:53:48.881Z,51.40
2023-02-04T06:54:49.164Z,48.98
2023-02-04T06:56:20.803Z,47.21
2023-02-04T06:56:49.591Z,54.14
2023-02-04T06:57:48.880Z,47.21
2023-02-04T06:58:49.037Z,44.96
2023-02-04T06:59:48.798Z,45.12
2023-02-04T07:00:48.914Z,47.37
2023-02-04T07:01:49.252Z,47.70
2023-02-04T07:02:48.826Z,48.66
2023-02-04T07:03:48.859Z,47.86
2023-02-04T07:04:48.802Z,46.73
2023-02-04T07:05:48.745Z,46.25
2023-02-04T07:06:48.785Z,48.02
2023-02-04T07:07:48.847Z,47.05
2023-02-04T07:08:48.753Z,54.79
2023-02-04T07:09:48.718Z,53.33
2023-02-04T07:10:48.724Z,47.53
2023-02-04T07:11:48.724Z,47.70
2023-02-04T07:12:48.717Z,47.05
2023-02-04T07:13:48.687Z,51.56
2023-02-04T07:14:48.664Z,46.73
2023-02-04T07:15:48.742Z,50.60
2023-02-04T07:16:48.685Z,50.11
2023-02-04T07:17:48.651Z,48.98
2023-02-04T07:18:48.653Z,48.18
2023-02-04T07:19:48.648Z,49.63
2023-02-04T07:20:48.650Z,50.92
2023-02-04T07:21:48.646Z,48.34
2023-02-04T07:22:48.733Z,53.50
2023-02-04T07:23:48.599Z,55.59
2023-02-04T07:24:48.592Z,46.41
2023-02-04T07:25:48.596Z,46.41
2023-02-04T07:26:48.626Z,56.07
2023-02-04T07:27:48.704Z,54.62
2023-02-04T07:28:48.559Z,57.69
2023-02-04T07:29:48.698Z,53.98
2023-02-04T07:30:48.675Z,54.62
2023-02-04T07:31:48.646Z,47.70
2023-02-04T07:32:48.586Z,55.91
2023-02-04T07:33:48.562Z,47.86
2023-02-04T07:34:48.567Z,48.50
2023-02-04T07:35:48.532Z,53.50
2023-02-04T07:36:48.596Z,46.73
2023-02-04T07:37:48.534Z,48.66
2023-02-04T07:38:48.542Z,55.27
2023-02-04T07:39:48.590Z,47.05
2023-02-04T07:40:48.500Z,47.37
2023-02-04T07:41:48.509Z,57.20
2023-02-04T07:42:48.493Z,55.59
2023-02-04T07:43:49.268Z,46.57
2023-02-04T07:44:49.363Z,48.50
2023-02-04T07:45:48.514Z,57.69
2023-02-04T07:46:48.425Z,55.11
2023-02-04T07:47:48.425Z,49.95
2023-02-04T07:48:48.466Z,50.43
2023-02-04T07:49:48.628Z,48.82
2023-02-04T07:50:48.523Z,46.89
2023-02-04T07:51:48.460Z,46.57
2023-02-04T07:52:48.398Z,45.76
2023-02-04T07:53:48.473Z,47.21
2023-02-04T07:54:48.440Z,48.18
2023-02-04T07:55:48.363Z,51.24
2023-02-04T07:56:48.350Z,56.88
2023-02-04T07:57:48.417Z,52.37
2023-02-04T07:58:48.344Z,55.27
2023-02-04T07:59:48.317Z,54.14
2023-02-04T08:00:48.328Z,56.72
2023-02-04T08:01:48.419Z,48.34
2023-02-04T08:02:48.389Z,45.92
2023-02-04T08:03:48.319Z,46.25
2023-02-04T08:04:48.303Z,52.53
2023-02-04T08:05:48.306Z,48.98
2023-02-04T08:06:48.380Z,52.69
2023-02-04T08:07:48.252Z,53.98
2023-02-04T08:08:48.251Z,49.63
2023-02-04T08:09:48.362Z,54.95
2023-02-04T08:10:48.220Z,53.50
2023-02-04T08:11:48.264Z,49.47
2023-02-04T08:12:48.234Z,51.08
2023-02-04T08:13:48.231Z,58.17
2023-02-04T08:14:48.784Z,54.62
2023-02-04T08:15:48.299Z,54.62
2023-02-04T08:16:48.231Z,51.56
2023-02-04T08:17:48.270Z,56.24
2023-02-04T08:18:48.204Z,47.05
2023-02-04T08:19:48.161Z,46.89
2023-02-04T08:20:48.207Z,47.53
2023-02-04T08:21:48.214Z,56.07
2023-02-04T08:22:48.215Z,59.14
2023-02-04T08:23:48.185Z,56.56
2023-02-04T08:24:48.125Z,55.11
2023-02-04T08:25:48.107Z,50.27
2023-02-04T08:26:48.128Z,60.10
2023-02-04T08:27:48.166Z,50.76
2023-02-04T08:28:48.127Z,56.07
2023-02-04T08:29:48.099Z,55.11
2023-02-04T08:30:48.182Z,53.50
2023-02-04T08:31:48.118Z,60.59
2023-02-04T08:32:48.105Z,49.79
2023-02-04T08:33:48.109Z,48.34
2023-02-04T08:34:48.072Z,60.42
2023-02-04T08:35:48.032Z,49.95
2023-02-04T08:36:48.054Z,48.34
2023-02-04T08:37:48.051Z,49.63
2023-02-04T08:38:48.033Z,59.62
2023-02-04T08:39:48.055Z,48.98
2023-02-04T08:40:48.029Z,48.98
2023-02-04T08:41:47.986Z,54.62
2023-02-04T08:42:47.999Z,61.39
2023-02-04T08:43:48.010Z,58.81
2023-02-04T08:44:47.991Z,56.88
2023-02-04T08:45:47.973Z,52.85
2023-02-04T08:46:48.136Z,51.72
2023-02-04T08:47:47.982Z,52.53
2023-02-04T08:48:47.974Z,55.27
2023-02-04T08:49:48.051Z,46.08
2023-02-04T08:50:47.944Z,48.66
2023-02-04T08:51:48.007Z,52.37
2023-02-04T08:52:48.045Z,54.62
2023-02-04T08:53:47.929Z,56.24
2023-02-04T08:54:47.916Z,48.50
2023-02-04T08:55:48.014Z,52.85
2023-02-04T08:56:47.946Z,53.17
2023-02-04T08:57:47.910Z,47.21
2023-02-04T08:58:47.899Z,57.69
2023-02-04T08:59:47.931Z,59.78
2023-02-04T09:00:47.965Z,51.56
2023-02-04T09:01:49.303Z,49.95
2023-02-04T09:02:47.876Z,54.79
2023-02-04T09:03:47.954Z,52.53
2023-02-04T09:04:47.832Z,47.21
2023-02-04T09:05:47.844Z,47.21
2023-02-04T09:06:47.880Z,56.40
2023-02-04T09:07:47.837Z,45.76
2023-02-04T09:08:47.828Z,55.11
2023-02-04T09:09:47.915Z,52.69
2023-02-04T09:10:47.816Z,49.63
2023-02-04T09:11:47.798Z,50.92
2023-02-04T09:12:47.786Z,54.46
2023-02-04T09:13:47.775Z,58.01
2023-02-04T09:14:47.811Z,54.30
2023-02-04T09:15:47.767Z,52.37
2023-02-04T09:16:47.796Z,56.88
2023-02-04T09:17:47.758Z,56.88
2023-02-04T09:18:47.763Z,56.40
2023-02-04T09:19:47.842Z,55.75
2023-02-04T09:20:47.747Z,56.40
2023-02-04T09:21:47.743Z,57.52
2023-02-04T09:22:47.723Z,56.07
2023-02-04T09:23:47.706Z,57.69
2023-02-04T09:24:47.697Z,52.05
2023-02-04T09:25:47.741Z,57.36
2023-02-04T09:26:47.713Z,55.75
2023-02-04T09:27:47.677Z,60.91
2023-02-04T09:28:47.688Z,48.02
2023-02-04T09:29:47.645Z,49.79
2023-02-04T09:30:47.688Z,49.15
2023-02-04T09:31:47.693Z,51.56
2023-02-04T09:32:47.628Z,46.89
2023-02-04T09:33:47.615Z,56.07
2023-02-04T09:34:47.653Z,50.43
2023-02-04T09:35:47.598Z,61.39
2023-02-04T09:36:47.638Z,57.04
2023-02-04T09:37:47.615Z,48.34
2023-02-04T09:38:47.648Z,58.33
2023-02-04T09:39:47.602Z,55.11
2023-02-04T09:40:47.626Z,54.14
2023-02-04T09:41:47.587Z,49.47
2023-02-04T09:42:47.609Z,49.15
2023-02-04T09:43:47.572Z,53.01
2023-02-04T09:44:47.574Z,62.20
2023-02-04T09:45:47.618Z,53.50
2023-02-04T09:46:47.556Z,49.47
2023-02-04T09:47:47.564Z,61.23
2023-02-04T09:48:47.545Z,57.69
2023-02-04T09:49:47.546Z,55.91
2023-02-04T09:50:47.509Z,57.04
2023-02-04T09:51:47.613Z,50.43
2023-02-04T09:52:47.497Z,57.04
2023-02-04T09:53:47.473Z,56.56
2023-02-04T09:54:47.475Z,54.62
2023-02-04T09:55:47.476Z,62.52
2023-02-04T09:56:47.524Z,52.85
2023-02-04T09:57:47.507Z,55.27
2023-02-04T09:58:47.424Z,59.62
2023-02-04T09:59:47.431Z,50.92
2023-02-04T10:00:47.458Z,56.88
2023-02-04T10:01:47.422Z,62.04
2023-02-04T10:02:47.425Z,51.88
2023-02-04T10:03:47.515Z,53.66
2023-02-04T10:04:47.405Z,56.07
2023-02-04T10:05:47.421Z,56.24
2023-02-04T10:06:47.470Z,55.11
2023-02-04T10:07:47.395Z,59.14
2023-02-04T10:08:47.361Z,65.90
2023-02-04T10:09:47.431Z,53.98
2023-02-04T10:10:47.432Z,53.17
2023-02-04T10:11:47.313Z,59.14
2023-02-04T10:12:47.323Z,62.84
2023-02-04T10:13:47.333Z,54.14
2023-02-04T10:14:47.407Z,58.01
2023-02-04T10:15:47.350Z,48.34
2023-02-04T10:16:47.341Z,50.76
2023-02-04T10:17:47.293Z,59.78
2023-02-04T10:18:47.302Z,53.66
2023-02-04T10:19:47.306Z,47.05
2023-02-04T10:20:47.244Z,63.49
2023-02-04T10:21:47.258Z,55.59
2023-02-04T10:22:47.277Z,58.01
2023-02-04T10:23:47.229Z,50.11
2023-02-04T10:24:47.265Z,56.56
2023-02-04T10:25:47.242Z,46.73
2023-02-04T10:26:47.227Z,56.88
2023-02-04T10:27:47.195Z,58.17
2023-02-04T10:28:47.188Z,63.00
2023-02-04T10:29:47.183Z,54.14
2023-02-04T10:30:47.403Z,49.63
2023-02-04T10:31:47.296Z,45.76
2023-02-04T10:32:47.187Z,45.28
2023-02-04T10:33:47.190Z,48.66
2023-02-04T10:34:47.170Z,51.24
2023-02-04T10:35:47.153Z,57.20
2023-02-04T10:36:47.133Z,49.31
2023-02-04T10:37:47.122Z,51.72
2023-02-04T10:38:47.158Z,60.26
2023-02-04T10:39:47.119Z,47.70
2023-02-04T10:40:47.171Z,51.24
2023-02-04T10:41:49.596Z,64.78
2023-02-04T10:42:47.132Z,58.49
2023-02-04T10:43:47.117Z,52.21
2023-02-04T10:44:47.094Z,62.84
2023-02-04T10:45:47.191Z,52.53
2023-02-04T10:46:47.086Z,45.28
2023-02-04T10:47:47.075Z,49.47
2023-02-04T10:48:47.199Z,51.56
2023-02-04T10:49:47.082Z,50.60
2023-02-04T10:50:47.057Z,55.11
2023-02-04T10:51:47.046Z,54.95
2023-02-04T10:52:47.053Z,55.75
2023-02-04T10:53:47.015Z,59.30
2023-02-04T10:54:47.016Z,57.85
2023-02-04T10:55:47.023Z,60.26
2023-02-04T10:56:47.007Z,47.86
2023-02-04T10:57:46.976Z,53.17
2023-02-04T10:58:46.965Z,51.08
2023-02-04T10:59:46.969Z,53.33
2023-02-04T11:00:47.011Z,49.31
2023-02-04T11:01:46.948Z,48.82
2023-02-04T11:02:46.939Z,56.72
2023-02-04T11:03:48.575Z,51.24
2023-02-04T11:04:47.989Z,52.85
2023-02-04T11:05:46.986Z,55.75
2023-02-04T11:06:46.895Z,60.59
2023-02-04T11:07:46.977Z,60.59
2023-02-04T11:08:46.926Z,52.05
2023-02-04T11:09:48.651Z,54.62
2023-02-04T11:10:46.894Z,57.20
2023-02-04T11:11:46.913Z,50.43
2023-02-04T11:12:46.909Z,51.88
2023-02-04T11:13:46.880Z,53.01
2023-02-04T11:14:46.886Z,57.69
2023-02-04T11:15:49.886Z,61.07
2023-02-04T11:16:46.878Z,57.85
2023-02-04T11:17:46.879Z,53.98
2023-02-04T11:18:46.822Z,54.30
2023-02-04T11:19:46.804Z,56.88
2023-02-04T11:20:47.826Z,58.81
2023-02-04T11:21:46.804Z,51.88
2023-02-04T11:22:46.816Z,61.39
2023-02-04T11:23:46.794Z,53.01
2023-02-04T11:24:46.772Z,53.66
2023-02-04T11:25:46.823Z,59.14
2023-02-04T11:26:46.767Z,57.20
2023-02-04T11:27:46.834Z,61.55
2023-02-04T11:28:46.766Z,54.30
2023-02-04T11:29:46.728Z,51.88
2023-02-04T11:30:46.840Z,52.85
2023-02-04T11:31:46.893Z,58.81
2023-02-04T11:32:46.763Z,48.98
2023-02-04T11:33:46.702Z,50.27
2023-02-04T11:34:46.725Z,48.82
2023-02-04T11:35:46.698Z,54.95
2023-02-04T11:36:46.674Z,49.47
2023-02-04T11:37:46.721Z,48.66
2023-02-04T11:38:46.688Z,45.76
2023-02-04T11:39:46.704Z,46.08
2023-02-04T11:40:46.638Z,46.89
2023-02-04T11:41:46.659Z,54.95
2023-02-04T11:42:46.668Z,47.53
2023-02-04T11:43:46.643Z,48.02
2023-02-04T11:44:46.614Z,46.25
2023-02-04T11:45:46.646Z,47.70
2023-02-04T11:46:46.619Z,49.95
2023-02-04T11:47:46.623Z,46.41
2023-02-04T11:48:46.751Z,49.95
2023-02-04T11:49:46.563Z,50.76
2023-02-04T11:50:46.559Z,58.33
2023-02-04T11:51:46.596Z,49.47
2023-02-04T11:52:46.572Z,53.33
2023-02-04T11:53:46.550Z,52.53
2023-02-04T11:54:46.563Z,54.30
2023-02-04T11:55:47.709Z,50.11
2023-02-04T11:56:47.527Z,51.08
2023-02-04T11:57:46.552Z,53.50
2023-02-04T11:58:46.545Z,48.34
2023-02-04T11:59:46.519Z,53.01
2023-02-04T12:00:47.167Z,49.15
2023-02-04T12:01:46.491Z,50.43
2023-02-04T12:02:46.527Z,50.60
2023-02-04T12:03:46.537Z,46.73
2023-02-04T12:04:46.501Z,49.47
2023-02-04T12:05:46.460Z,46.57
2023-02-04T12:06:46.445Z,52.85
2023-02-04T12:07:46.497Z,46.08
2023-02-04T12:08:46.438Z,47.05
2023-02-04T12:09:46.440Z,48.66
2023-02-04T12:10:46.445Z,55.75
2023-02-04T12:11:46.547Z,55.59
2023-02-04T12:12:46.465Z,57.36
2023-02-04T12:13:46.445Z,55.91
2023-02-04T12:14:46.423Z,61.87
2023-02-04T12:16:18.368Z,57.69
2023-02-04T12:16:46.425Z,53.82
2023-02-04T12:17:46.367Z,51.08
2023-02-04T12:18:46.371Z,56.07
2023-02-04T12:19:46.374Z,54.46
2023-02-04T12:20:46.361Z,51.56
2023-02-04T12:21:46.354Z,55.43
2023-02-04T12:22:46.349Z,48.98
2023-02-04T12:23:46.338Z,50.60
2023-02-04T12:24:46.375Z,45.60
2023-02-04T12:25:46.342Z,51.08
2023-02-04T12:26:46.348Z,48.34
2023-02-04T12:28:18.278Z,47.21
2023-02-04T12:28:46.282Z,56.07
2023-02-04T12:29:46.265Z,49.95
2023-02-04T12:30:47.349Z,48.66
2023-02-04T12:31:46.358Z,47.05
2023-02-04T12:32:46.283Z,62.20
2023-02-04T12:33:46.260Z,54.14
2023-02-04T12:34:46.254Z,57.20
2023-02-04T12:35:46.229Z,57.20
2023-02-04T12:36:46.234Z,53.82
2023-02-04T12:37:46.253Z,58.01
2023-02-04T12:38:46.238Z,47.21
2023-02-04T12:39:46.214Z,59.30
2023-02-04T12:40:46.200Z,52.21
2023-02-04T12:41:46.232Z,53.66
2023-02-04T12:42:46.170Z,53.17
2023-02-04T12:43:46.204Z,53.66
2023-02-04T12:44:46.166Z,45.92
2023-02-04T12:45:46.173Z,53.01
2023-02-04T12:46:46.188Z,56.72
2023-02-04T12:47:46.244Z,58.17
2023-02-04T12:48:46.121Z,59.30
2023-02-04T12:49:46.115Z,56.07
2023-02-04T12:50:46.123Z,56.07
2023-02-04T12:51:46.108Z,48.98
2023-02-04T12:52:46.125Z,61.71
2023-02-04T12:53:46.132Z,64.13
2023-02-04T12:54:46.078Z,56.88
2023-02-04T12:55:46.077Z,49.95
2023-02-04T12:56:46.085Z,55.59
2023-02-04T12:57:46.065Z,59.14
2023-02-04T12:58:46.073Z,45.92
2023-02-04T12:59:46.069Z,56.56
2023-02-04T13:00:46.086Z,49.95
2023-02-04T13:01:46.079Z,56.72
2023-02-04T13:02:46.053Z,46.57
2023-02-04T13:03:46.031Z,45.76
2023-02-04T13:04:46.036Z,59.62
2023-02-04T13:05:46.068Z,48.82
2023-02-04T13:06:46.007Z,46.25
2023-02-04T13:07:46.026Z,50.43
2023-02-04T13:08:46.004Z,57.52